createdAt,value
2019-01-21T00:00:33.286Z,20.82
2019-01-21T00:03:03.071Z,19.45
2019-01-21T00:05:56.534Z,20.17
2019-01-21T00:08:26.609Z,21.55
2019-01-21T00:10:57.422Z,20.17
2019-01-21T00:13:27.488Z,20.75
2019-01-21T00:16:00.814Z,18.77
2019-01-21T00:18:32.636Z,20.08
2019-01-21T00:21:02.369Z,20.65
2019-01-21T00:23:32.018Z,21.50
2019-01-21T00:26:03.171Z,21.23
2019-01-21T00:28:33.853Z,20.70
2019-01-21T00:31:05.493Z,19.95
2019-01-21T00:33:47.286Z,20.88
2019-01-21T00:36:21.954Z,19.60
2019-01-21T00:38:58.900Z,20.27
2019-01-21T00:41:32.018Z,19.45
2019-01-21T00:44:02.938Z,18.20
2019-01-21T00:46:35.216Z,18.23
2019-01-21T00:49:06.976Z,17.45
2019-01-21T00:51:37.162Z,17.37
2019-01-21T00:54:07.692Z,19.30
2019-01-21T00:56:37.636Z,19.35
2019-01-21T00:59:22.469Z,20.88
2019-01-21T01:01:56.592Z,20.50
2019-01-21T01:04:35.180Z,21.27
2019-01-21T01:07:06.782Z,19.82
2019-01-21T01:09:37.656Z,20.62
2019-01-21T01:12:09.967Z,21.45
2019-01-21T01:14:44.491Z,20.37
2019-01-21T01:17:18.044Z,20.80
2019-01-21T01:19:52.760Z,20.30
2019-01-21T01:22:30.434Z,21.73
2019-01-21T01:25:04.256Z,21.57
2019-01-21T01:27:37.076Z,20.37
2019-01-21T01:30:12.635Z,20.10
2019-01-21T01:32:49.584Z,22.22
2019-01-21T01:35:29.186Z,20.08
2019-01-21T01:46:28.077Z,21.30
2019-01-21T01:48:57.370Z,20.25
2019-01-21T01:51:26.292Z,19.65
2019-01-21T01:53:55.476Z,21.17
2019-01-21T01:56:27.433Z,22.22
2019-01-21T01:58:56.392Z,20.77
2019-01-21T02:01:25.704Z,21.52
2019-01-21T02:03:54.684Z,22.32
2019-01-21T02:06:33.751Z,22.55
2019-01-21T02:09:12.510Z,21.50
2019-01-21T02:11:42.578Z,20.75
2019-01-21T02:14:12.817Z,23.20
2019-01-21T02:16:41.739Z,20.70
2019-01-21T02:19:12.629Z,22.30
2019-01-21T02:21:42.267Z,22.48
2019-01-21T02:24:13.853Z,23.07
2019-01-21T02:26:54.711Z,21.45
2019-01-21T02:29:42.105Z,21.15
2019-01-21T02:32:23.851Z,20.37
2019-01-21T02:35:23.357Z,20.90
2019-01-21T02:38:15.636Z,19.92
2019-01-21T02:40:58.520Z,20.30
2019-01-21T02:44:16.195Z,19.85
2019-01-21T02:47:37.343Z,20.57
2019-01-21T02:50:29.813Z,21.10
2019-01-21T02:53:35.915Z,21.60
2019-01-21T02:56:41.917Z,20.17
2019-01-21T02:59:28.104Z,20.17
2019-01-21T03:02:45.773Z,19.40
2019-01-21T03:05:43.382Z,18.07
2019-01-21T03:08:41.699Z,20.32
2019-01-21T03:11:54.835Z,19.98
2019-01-21T03:14:47.255Z,19.95
2019-01-21T03:17:37.702Z,19.37
2019-01-21T03:20:44.892Z,20.45
2019-01-21T03:23:51.819Z,19.67
2019-01-21T03:27:00.956Z,21.20
2019-01-21T03:30:08.013Z,19.82
2019-01-21T03:32:49.169Z,19.42
2019-01-21T03:35:59.622Z,20.20
2019-01-21T04:13:17.152Z,20.48
2019-01-21T04:16:18.793Z,21.12
2019-01-21T04:19:02.056Z,20.80
2019-01-21T04:21:48.515Z,20.70
2019-01-21T04:25:04.146Z,20.30
2019-01-21T04:28:06.236Z,20.32
2019-01-21T04:58:54.131Z,20.27
2019-01-21T05:01:50.256Z,20.32
2019-01-21T05:04:33.084Z,20.45
2019-01-21T05:07:41.092Z,20.20
2019-01-21T05:10:34.504Z,21.37
2019-01-21T05:14:02.400Z,22.25
2019-01-21T05:16:55.432Z,18.90
2019-01-21T05:20:09.397Z,20.50
2019-01-21T05:23:31.706Z,20.88
2019-01-21T05:26:26.153Z,19.52
2019-01-21T05:29:22.075Z,20.92
2019-01-21T05:32:21.956Z,20.40
2019-01-21T05:35:14.043Z,20.20
2019-01-21T05:38:07.625Z,20.90
2019-01-21T05:41:23.683Z,21.33
2019-01-21T05:44:27.618Z,21.75
2019-01-21T05:47:11.167Z,21.50
2019-01-21T05:50:35.460Z,22.37
2019-01-21T05:53:50.127Z,20.62
2019-01-21T06:00:33.464Z,21.37
2019-01-21T06:03:46.482Z,22.75
2019-01-21T06:06:51.596Z,20.05
2019-01-21T06:09:52.949Z,22.10
2019-01-21T06:12:57.433Z,23.27
2019-01-21T06:16:03.966Z,22.95
2019-01-21T07:01:58.553Z,24.67
2019-01-21T07:05:06.939Z,24.43
2019-01-21T07:08:21.429Z,23.57
2019-01-21T07:11:27.529Z,23.75
2019-01-21T07:14:39.729Z,24.18
2019-01-21T07:17:36.499Z,24.87
2019-01-21T07:20:33.403Z,23.30
2019-01-21T07:24:04.775Z,22.73
2019-01-21T07:27:09.675Z,23.75
2019-01-21T07:30:28.891Z,25.20
2019-01-21T07:33:38.668Z,22.40
2019-01-21T07:36:43.253Z,21.42
2019-01-21T07:51:06.515Z,23.35
2019-01-21T08:01:52.549Z,22.65
2019-01-21T08:05:14.997Z,23.18
2019-01-21T08:07:51.964Z,24.57
2019-01-21T08:11:20.158Z,25.27
2019-01-21T08:18:10.280Z,23.47
2019-01-21T08:21:15.920Z,24.63
2019-01-21T08:24:38.937Z,23.32
2019-01-21T08:28:14.796Z,23.20
2019-01-21T08:31:12.989Z,24.05
2019-01-21T08:34:21.733Z,24.30
2019-01-21T08:37:40.561Z,23.55
2019-01-21T08:40:37.587Z,25.30
2019-01-21T08:43:58.593Z,23.60
2019-01-21T08:50:51.353Z,24.72
2019-01-21T08:54:24.201Z,23.80
2019-01-21T08:57:21.502Z,25.60
2019-01-21T09:00:14.709Z,23.98
2019-01-21T09:03:09.572Z,24.67
2019-01-21T09:06:13.929Z,25.17
2019-01-21T09:09:28.874Z,22.37
2019-01-21T09:12:31.395Z,23.92
2019-01-21T09:15:29.707Z,23.12
2019-01-21T09:18:40.430Z,22.75
2019-01-21T09:21:35.337Z,22.55
2019-01-21T09:25:00.497Z,22.93
2019-01-21T09:28:07.165Z,24.43
2019-01-21T09:31:24.828Z,24.00
2019-01-21T09:34:41.800Z,21.77
2019-01-21T09:37:45.228Z,22.65
2019-01-21T09:40:41.962Z,25.85
2019-01-21T09:43:39.988Z,25.12
2019-01-21T09:46:48.521Z,24.47
2019-01-21T09:49:16.009Z,23.52
2019-01-21T09:52:15.136Z,26.10
2019-01-21T09:54:44.068Z,23.12
2019-01-21T09:57:26.264Z,24.10
2019-01-21T10:00:01.509Z,25.97
2019-01-21T10:02:47.270Z,23.40
2019-01-21T10:05:28.089Z,25.97
2019-01-21T10:12:13.970Z,25.55
2019-01-21T10:15:35.228Z,25.15
2019-01-21T10:19:00.212Z,25.60
2019-01-21T10:22:26.851Z,25.80
2019-01-21T10:28:54.647Z,23.95
2019-01-21T10:32:03.232Z,25.70
2019-01-21T10:38:54.424Z,26.33
2019-01-21T10:41:38.088Z,26.30
2019-01-21T10:45:05.593Z,26.65
2019-01-21T10:48:25.745Z,26.93
2019-01-21T10:51:18.718Z,26.80
2019-01-21T10:54:13.807Z,27.70
2019-01-21T10:57:31.512Z,25.65
2019-01-21T11:01:02.420Z,25.23
2019-01-21T11:04:34.289Z,27.05
2019-01-21T11:07:44.447Z,25.50
2019-01-21T11:10:43.029Z,24.98
2019-01-21T11:14:06.761Z,26.05
2019-01-21T11:17:02.964Z,25.70
2019-01-21T11:20:28.425Z,26.77
2019-01-21T11:23:26.939Z,26.87
2019-01-21T11:26:54.137Z,28.87
2019-01-21T11:29:44.903Z,25.23
2019-01-21T11:32:57.477Z,26.62
2019-01-21T11:36:10.448Z,26.90
2019-01-21T11:39:24.288Z,25.97
2019-01-21T11:42:30.855Z,24.85
2019-01-21T11:45:41.027Z,24.98
2019-01-21T11:48:43.123Z,24.98
2019-01-21T11:51:46.087Z,23.10
2019-01-21T11:55:23.667Z,22.32
2019-01-21T11:58:40.366Z,24.05
2019-01-21T12:10:02.194Z,23.00
2019-01-21T12:12:49.933Z,24.40
2019-01-21T12:15:41.666Z,23.77
2019-01-21T12:18:40.414Z,21.55
2019-01-21T12:21:58.848Z,22.55
2019-01-21T12:24:45.667Z,23.20
2019-01-21T12:28:06.519Z,24.80
2019-01-21T12:30:55.597Z,22.25
2019-01-21T12:34:04.456Z,22.48
2019-01-21T12:37:22.991Z,22.10
2019-01-21T12:40:23.538Z,22.32
2019-01-21T12:43:25.688Z,21.90
2019-01-21T12:46:39.488Z,22.45
2019-01-21T12:49:46.053Z,23.35
2019-01-21T12:52:24.054Z,21.87
2019-01-21T12:55:00.692Z,23.77
2019-01-21T12:58:31.537Z,22.82
2019-01-21T13:02:01.847Z,22.32
2019-01-21T13:08:35.918Z,23.13
2019-01-21T13:12:03.457Z,23.83
2019-01-21T13:15:30.864Z,24.37
2019-01-21T13:18:48.996Z,24.67
2019-01-21T13:21:57.379Z,24.70
2019-01-21T13:25:30.020Z,26.13
2019-01-21T13:29:18.723Z,25.47
2019-01-21T13:32:12.612Z,24.37
2019-01-21T13:35:14.273Z,23.32
2019-01-21T13:38:11.596Z,23.27
2019-01-21T13:41:42.581Z,23.12
2019-01-21T13:48:38.538Z,23.98
2019-01-21T13:51:49.323Z,23.03
2019-01-21T13:55:12.452Z,23.47
2019-01-21T13:58:27.678Z,24.10
2019-01-21T14:01:09.986Z,23.38
2019-01-21T14:04:34.954Z,23.35
2019-01-21T14:07:48.086Z,22.60
2019-01-21T14:11:15.855Z,22.62
2019-01-21T14:14:01.302Z,22.10
2019-01-21T14:17:11.622Z,22.17
2019-01-21T14:20:53.956Z,21.42
2019-01-21T14:24:17.881Z,22.15
2019-01-21T14:27:21.807Z,21.57
2019-01-21T14:30:00.466Z,21.62
2019-01-21T14:33:13.323Z,22.85
2019-01-21T14:36:09.075Z,23.65
2019-01-21T14:39:15.269Z,21.50
2019-01-21T14:42:44.713Z,21.65
2019-01-21T14:45:56.583Z,21.52
2019-01-21T14:51:41.474Z,20.12
2019-01-21T14:54:33.802Z,21.30
2019-01-21T14:57:52.802Z,21.65
2019-01-21T15:01:10.252Z,22.15
2019-01-21T15:03:54.338Z,21.62
2019-01-21T15:07:07.500Z,21.35
2019-01-21T15:15:35.622Z,22.02
2019-01-21T15:18:22.240Z,23.30
2019-01-21T15:21:49.828Z,22.07
2019-01-21T15:25:00.843Z,24.30
2019-01-21T15:27:49.053Z,24.67
2019-01-21T15:31:05.096Z,24.87
2019-01-21T15:37:48.244Z,23.92
2019-01-21T15:40:41.443Z,23.32
2019-01-21T15:43:29.340Z,25.37
2019-01-21T15:46:22.540Z,24.35
2019-01-21T15:49:28.110Z,26.35
2019-01-21T15:52:32.935Z,27.40
2019-01-21T15:59:27.615Z,25.55
2019-01-21T16:02:04.693Z,25.85
2019-01-21T16:04:58.472Z,24.65
2019-01-21T16:07:43.175Z,26.60
2019-01-21T16:10:34.749Z,26.70
2019-01-21T16:13:38.711Z,27.07
2019-01-21T16:16:34.989Z,24.52
2019-01-21T16:19:15.998Z,26.70
2019-01-21T16:22:03.834Z,27.13
2019-01-21T16:24:56.523Z,28.62
2019-01-21T16:28:06.768Z,28.23
2019-01-21T16:31:02.210Z,28.77
2019-01-21T16:33:49.206Z,27.65
2019-01-21T16:36:36.920Z,28.55
2019-01-21T16:39:37.076Z,28.00
2019-01-21T16:42:14.978Z,27.15
2019-01-21T16:44:45.805Z,28.47
2019-01-21T16:47:15.789Z,28.30
2019-01-21T16:50:10.515Z,28.80
2019-01-21T16:53:21.232Z,28.60
2019-01-21T16:56:06.377Z,30.12
2019-01-21T16:58:41.496Z,29.92
2019-01-21T17:01:22.477Z,29.07
2019-01-21T17:03:56.869Z,28.15
2019-01-21T17:07:13.584Z,31.37
2019-01-21T17:09:43.141Z,28.87
2019-01-21T17:12:12.511Z,28.60
2019-01-21T17:14:41.941Z,28.98
2019-01-21T17:19:40.282Z,30.08
2019-01-21T17:22:09.573Z,30.48
2019-01-21T17:24:38.899Z,29.45
2019-01-21T17:27:08.882Z,30.88
2019-01-21T17:34:54.962Z,29.85
2019-01-21T17:37:28.219Z,30.97
2019-01-21T17:39:57.198Z,32.28
2019-01-21T17:42:26.082Z,30.88
2019-01-21T17:44:55.004Z,32.78
2019-01-21T17:47:24.130Z,32.05
2019-01-21T17:49:53.148Z,33.48
2019-01-21T17:52:22.231Z,33.42
2019-01-21T17:54:51.200Z,34.43
2019-01-21T17:57:20.168Z,34.53
2019-01-21T17:59:49.163Z,33.63
2019-01-21T18:02:18.128Z,35.03
2019-01-21T18:04:47.068Z,36.17
2019-01-21T18:07:15.943Z,37.35
2019-01-21T18:09:45.031Z,35.92
2019-01-21T18:12:13.933Z,34.30
2019-01-21T18:14:42.811Z,36.15
2019-01-21T18:17:11.679Z,33.88
2019-01-21T18:19:40.769Z,33.63
2019-01-21T18:22:09.931Z,34.78
2019-01-21T18:24:38.919Z,36.08
2019-01-21T18:27:07.775Z,35.03
2019-01-21T18:29:36.667Z,38.63
2019-01-21T18:32:05.681Z,36.95
2019-01-21T18:34:34.551Z,36.98
2019-01-21T18:37:03.771Z,36.90
2019-01-21T18:39:32.745Z,34.98
2019-01-21T18:42:02.738Z,35.58
2019-01-21T18:44:33.737Z,35.48
2019-01-21T18:47:07.585Z,36.80
2019-01-21T18:52:43.397Z,35.63
2019-01-21T18:55:17.341Z,34.75
2019-01-21T18:58:18.001Z,36.20
2019-01-21T19:00:47.061Z,36.60
2019-01-21T19:03:24.332Z,33.95
2019-01-21T19:05:55.102Z,34.75
2019-01-21T19:11:09.469Z,35.13
2019-01-21T19:13:38.455Z,35.55
2019-01-21T19:16:07.391Z,35.28
2019-01-21T19:19:23.636Z,36.00
2019-01-21T19:22:25.389Z,35.83
2019-01-21T19:28:41.204Z,34.60
2019-01-21T19:31:12.773Z,36.15
2019-01-21T19:33:42.725Z,38.13
2019-01-21T19:36:11.939Z,37.50
2019-01-21T19:38:41.840Z,35.92
2019-01-21T19:41:12.002Z,36.98
2019-01-21T19:43:44.153Z,37.00
2019-01-21T19:46:14.428Z,37.50
2019-01-21T19:48:46.873Z,38.85
2019-01-21T20:02:44.895Z,35.73
2019-01-21T20:37:46.942Z,35.75
2019-01-21T20:43:13.012Z,39.33
2019-01-21T20:58:48.341Z,36.55
2019-01-21T21:05:47.946Z,39.67
2019-01-21T22:02:32.176Z,39.88
2019-01-21T23:09:19.084Z,41.35
2019-01-21T23:11:48.235Z,41.00
2019-01-21T23:14:17.219Z,41.00
2019-01-21T23:16:46.175Z,40.17
2019-01-21T23:19:15.187Z,41.90
2019-01-21T23:21:44.267Z,42.23
2019-01-21T23:24:16.726Z,39.65
2019-01-21T23:26:45.787Z,41.75
2019-01-21T23:29:14.760Z,40.78
2019-01-21T23:31:43.725Z,42.58
2019-01-21T23:34:12.663Z,41.58
2019-01-21T23:36:41.732Z,41.28
2019-01-21T23:39:10.701Z,44.18
